Time;durP1;ratioP1;P1;durP2;ratioP2;P2;SDS_P1;SDS_P2;PMS_P1;PMS_P2;Temp;Humidity;BMP_temperature;BMP_pressure;BME280_temperature;BME280_humidity;BME280_pressure;Samples;Min_cycle;Max_cycle;Signal;HPM_P1;HPM_P2
2022/04/03 00:01:09;;;;;;;45.20;22.05;;;;;;;;;;4968108;28;100226;-74
2022/04/03 00:03:36;;;;;;;34.85;17.23;;;;;;;;;;4934965;28;102282;-73
2022/04/03 00:06:03;;;;;;;42.17;19.50;;;;;;;;;;4951191;28;100278;-73
2022/04/03 00:08:31;;;;;;;35.35;16.65;;;;;;;;;;4934675;28;100177;-73
2022/04/03 00:10:59;;;;;;;35.53;18.17;;;;;;;;;;4934836;28;100902;-73
2022/04/03 00:13:26;;;;;;;39.05;19.33;;;;;;;;;;4950915;28;103250;-74
2022/04/03 00:15:56;;;;;;;38.17;20.13;;;;;;;;;;4951489;28;100194;-74
2022/04/03 00:18:24;;;;;;;37.38;18.08;;;;;;;;;;4951728;28;100052;-73
2022/04/03 00:20:52;;;;;;;39.97;19.50;;;;;;;;;;4934906;28;100532;-73
2022/04/03 00:23:23;;;;;;;42.83;20.35;;;;;;;;;;4968431;28;100619;-74
2022/04/03 00:25:51;;;;;;;40.78;18.25;;;;;;;;;;4968232;28;100423;-73
2022/04/03 00:28:19;;;;;;;45.88;20.92;;;;;;;;;;4951009;28;100193;-74
2022/04/03 00:30:46;;;;;;;41.47;20.08;;;;;;;;;;4969211;28;100314;-74
2022/04/03 00:33:13;;;;;;;32.40;16.10;;;;;;;;;;4938174;28;100551;-74
2022/04/03 00:35:40;;;;;;;39.35;18.95;;;;;;;;;;4954689;28;100029;-74
2022/04/03 00:38:07;;;;;;;34.08;15.48;;;;;;;;;;4938296;28;100023;-73
2022/04/03 00:40:33;;;;;;;25.17;12.43;;;;;;;;;;4921992;28;100469;-74
2022/04/03 00:43:00;;;;;;;26.75;11.88;;;;;;;;;;4971838;28;100721;-74
2022/04/03 00:45:27;;;;;;;26.35;11.50;;;;;;;;;;4954245;28;100247;-72
2022/04/03 00:47:56;;;;;;;24.65;9.68;;;;;;;;;;4954490;28;101046;-74
2022/04/03 00:50:23;;;;;;;28.55;10.05;;;;;;;;;;4953848;28;100275;-73
2022/04/03 00:52:51;;;;;;;23.67;9.20;;;;;;;;;;4953056;28;102652;-73
2022/04/03 00:55:18;;;;;;;17.95;9.40;;;;;;;;;;4953618;28;100125;-73
2022/04/03 00:57:45;;;;;;;23.15;9.55;;;;;;;;;;4970486;28;100166;-73
2022/04/03 01:00:12;;;;;;;19.50;9.93;;;;;;;;;;4953787;28;100342;-73
2022/04/03 01:02:40;;;;;;;15.55;8.55;;;;;;;;;;4953935;28;100574;-74
2022/04/03 01:05:07;;;;;;;20.75;9.05;;;;;;;;;;4971445;28;100050;-73
2022/04/03 01:07:34;;;;;;;20.65;9.40;;;;;;;;;;4954359;28;100207;-73
2022/04/03 01:10:01;;;;;;;20.45;8.55;;;;;;;;;;4953811;28;100178;-73
2022/04/03 01:12:28;;;;;;;19.90;9.40;;;;;;;;;;4952267;28;100793;-74
2022/04/03 01:15:15;;;;;;;19.95;9.05;;;;;;;;;;4970532;28;100119;-73
2022/04/03 01:17:42;;;;;;;23.65;9.57;;;;;;;;;;4971091;28;100080;-73
2022/04/03 01:20:10;;;;;;;20.35;10.23;;;;;;;;;;4953207;28;100963;-73
2022/04/03 01:22:37;;;;;;;20.77;10.00;;;;;;;;;;4953804;28;100577;-73
2022/04/03 01:25:04;;;;;;;26.67;11.30;;;;;;;;;;4953826;28;100045;-74
2022/04/03 01:27:31;;;;;;;18.83;9.48;;;;;;;;;;4953789;28;100187;-73
2022/04/03 01:29:58;;;;;;;18.35;10.20;;;;;;;;;;4952902;28;102507;-74
2022/04/03 01:32:25;;;;;;;21.20;10.63;;;;;;;;;;4971347;28;100589;-74
2022/04/03 01:34:51;;;;;;;23.00;9.88;;;;;;;;;;4953053;28;100074;-73
2022/04/03 01:37:18;;;;;;;29.85;10.52;;;;;;;;;;4952838;28;100063;-74
2022/04/03 01:39:45;;;;;;;23.13;10.40;;;;;;;;;;4968775;28;101378;-74
2022/04/03 01:42:12;;;;;;;26.48;10.73;;;;;;;;;;4968739;28;100925;-74
2022/04/03 01:44:39;;;;;;;23.42;9.57;;;;;;;;;;4967625;28;100357;-74
2022/04/03 01:47:06;;;;;;;26.85;11.25;;;;;;;;;;4969331;28;100138;-74
2022/04/03 01:49:32;;;;;;;31.23;12.23;;;;;;;;;;4953035;28;100234;-74
2022/04/03 01:51:59;;;;;;;21.40;9.77;;;;;;;;;;4953262;28;100603;-73
2022/04/03 01:54:26;;;;;;;22.08;9.20;;;;;;;;;;4968618;28;100313;-74
2022/04/03 01:56:53;;;;;;;21.02;7.93;;;;;;;;;;4970981;28;100302;-74
2022/04/03 01:59:20;;;;;;;17.67;9.20;;;;;;;;;;4953150;28;100328;-73
2022/04/03 02:01:47;;;;;;;16.63;7.32;;;;;;;;;;4953198;28;102306;-74
2022/04/03 02:04:14;;;;;;;20.13;7.45;;;;;;;;;;4952739;28;100277;-74
2022/04/03 02:06:41;;;;;;;15.48;8.48;;;;;;;;;;4953203;28;100212;-74
2022/04/03 02:09:08;;;;;;;15.65;7.13;;;;;;;;;;4953069;28;100362;-74
2022/04/03 02:11:35;;;;;;;14.75;6.88;;;;;;;;;;4969171;28;100770;-74
2022/04/03 02:14:02;;;;;;;15.40;7.47;;;;;;;;;;4970624;28;100091;-73
2022/04/03 02:16:29;;;;;;;15.90;7.68;;;;;;;;;;4970353;28;100198;-74
2022/04/03 02:18:56;;;;;;;17.63;6.97;;;;;;;;;;4969940;28;100461;-73
2022/04/03 02:21:23;;;;;;;14.05;7.07;;;;;;;;;;4937246;28;100875;-73
2022/04/03 02:23:51;;;;;;;11.82;6.43;;;;;;;;;;4953011;28;100128;-74
2022/04/03 02:26:18;;;;;;;15.60;6.57;;;;;;;;;;4953133;28;100172;-74
2022/04/03 02:28:45;;;;;;;12.38;6.15;;;;;;;;;;4968437;28;100453;-74
2022/04/03 02:31:12;;;;;;;15.95;6.38;;;;;;;;;;4969115;28;100678;-74
2022/04/03 02:33:39;;;;;;;8.65;5.45;;;;;;;;;;4953087;28;100114;-73
2022/04/03 02:36:06;;;;;;;12.10;5.57;;;;;;;;;;4970722;28;100082;-73
2022/04/03 02:38:33;;;;;;;13.07;5.43;;;;;;;;;;4969729;28;101472;-74
2022/04/03 02:41:00;;;;;;;13.40;5.72;;;;;;;;;;4970197;28;100592;-74
2022/04/03 02:43:26;;;;;;;17.50;6.10;;;;;;;;;;4953266;28;100164;-74
2022/04/03 02:45:53;;;;;;;10.98;5.50;;;;;;;;;;4937163;28;99935;-73
2022/04/03 02:48:20;;;;;;;10.88;6.03;;;;;;;;;;4947392;28;100337;-73
2022/04/03 02:50:48;;;;;;;10.70;5.40;;;;;;;;;;4969601;28;101244;-73
2022/04/03 02:53:14;;;;;;;16.77;5.25;;;;;;;;;;4969552;28;101062;-73
2022/04/03 02:55:41;;;;;;;10.57;5.93;;;;;;;;;;4935597;28;100041;-73
2022/04/03 02:58:08;;;;;;;12.05;5.78;;;;;;;;;;4952693;28;100279;-73
2022/04/03 03:00:35;;;;;;;13.77;7.20;;;;;;;;;;4969827;28;100703;-74
2022/04/03 03:03:04;;;;;;;13.40;7.35;;;;;;;;;;4968997;28;100106;-74
2022/04/03 03:05:32;;;;;;;14.68;6.53;;;;;;;;;;4953091;28;100121;-74
2022/04/03 03:07:59;;;;;;;13.07;5.85;;;;;;;;;;4952345;28;100512;-74
2022/04/03 03:10:26;;;;;;;16.77;7.05;;;;;;;;;;4952846;28;100535;-74
2022/04/03 03:12:53;;;;;;;13.00;5.88;;;;;;;;;;4936468;28;100216;-74
2022/04/03 03:15:21;;;;;;;12.57;5.63;;;;;;;;;;4969946;28;100008;-73
2022/04/03 03:17:49;;;;;;;12.25;6.03;;;;;;;;;;4968925;28;100826;-73
2022/04/03 03:20:21;;;;;;;11.70;5.80;;;;;;;;;;4952191;28;103406;-73
2022/04/03 03:22:48;;;;;;;11.73;5.78;;;;;;;;;;4952589;28;100294;-73
2022/04/03 03:25:15;;;;;;;10.85;5.18;;;;;;;;;;4969825;28;100267;-74
2022/04/03 03:27:42;;;;;;;13.75;5.72;;;;;;;;;;4969775;28;100249;-74
2022/04/03 03:30:11;;;;;;;13.88;5.93;;;;;;;;;;4951921;28;100577;-74
2022/04/03 03:32:38;;;;;;;10.30;5.63;;;;;;;;;;4968495;28;100097;-74
2022/04/03 03:35:05;;;;;;;13.70;6.35;;;;;;;;;;4952756;28;100121;-74
2022/04/03 03:37:32;;;;;;;11.90;6.50;;;;;;;;;;4969301;28;100627;-72
2022/04/03 03:39:59;;;;;;;8.20;4.80;;;;;;;;;;4952148;28;100563;-72
2022/04/03 03:42:25;;;;;;;11.05;5.88;;;;;;;;;;4951892;28;100102;-73
2022/04/03 03:44:52;;;;;;;12.82;6.88;;;;;;;;;;4969501;28;100139;-73
2022/04/03 03:47:20;;;;;;;13.98;6.03;;;;;;;;;;4952019;28;100401;-73
2022/04/03 03:49:47;;;;;;;11.57;6.22;;;;;;;;;;4951893;28;101173;-73
2022/04/03 03:52:14;;;;;;;9.73;5.40;;;;;;;;;;4952099;28;101330;-73
2022/04/03 03:54:41;;;;;;;9.57;5.55;;;;;;;;;;4968273;28;100135;-73
2022/04/03 03:57:09;;;;;;;11.52;5.55;;;;;;;;;;4951874;28;100579;-73
2022/04/03 03:59:35;;;;;;;9.40;4.95;;;;;;;;;;4951772;28;103356;-73
2022/04/03 04:02:02;;;;;;;9.57;4.82;;;;;;;;;;4951968;28;105309;-73
2022/04/03 04:04:29;;;;;;;9.18;5.22;;;;;;;;;;4969194;28;100179;-73
2022/04/03 04:06:56;;;;;;;11.15;6.07;;;;;;;;;;4970957;28;100389;-73
2022/04/03 04:09:23;;;;;;;12.07;7.28;;;;;;;;;;4972232;28;104813;-72
2022/04/03 04:11:50;;;;;;;14.98;5.93;;;;;;;;;;4972840;28;100298;-73
2022/04/03 04:14:17;;;;;;;12.48;5.72;;;;;;;;;;4954951;28;99980;-74
2022/04/03 04:16:45;;;;;;;12.73;6.32;;;;;;;;;;4972440;28;102846;-73
2022/04/03 04:19:14;;;;;;;12.48;5.20;;;;;;;;;;4955181;28;100711;-73
2022/04/03 04:21:41;;;;;;;8.57;4.93;;;;;;;;;;4969391;28;99924;-73
2022/04/03 04:24:08;;;;;;;17.70;4.57;;;;;;;;;;4938962;28;100050;-73
2022/04/03 04:26:35;;;;;;;9.20;5.15;;;;;;;;;;4954848;28;100392;-73
2022/04/03 04:29:01;;;;;;;14.45;5.05;;;;;;;;;;4954867;28;100563;-72
2022/04/03 04:31:28;;;;;;;11.85;4.70;;;;;;;;;;4972011;28;100002;-73
2022/04/03 04:33:55;;;;;;;8.63;4.30;;;;;;;;;;4954649;28;100098;-73
2022/04/03 04:36:22;;;;;;;11.50;5.78;;;;;;;;;;4972139;28;100307;-73
2022/04/03 04:38:49;;;;;;;10.85;5.50;;;;;;;;;;4971643;28;100736;-73
2022/04/03 04:41:16;;;;;;;14.00;6.00;;;;;;;;;;4952876;28;100676;-73
2022/04/03 04:43:43;;;;;;;12.13;4.50;;;;;;;;;;4951645;28;100132;-73
2022/04/03 04:46:09;;;;;;;9.70;5.10;;;;;;;;;;4954286;28;100197;-73
2022/04/03 04:48:36;;;;;;;11.63;5.68;;;;;;;;;;4954793;28;101180;-73
2022/04/03 04:51:03;;;;;;;10.88;5.95;;;;;;;;;;4971859;28;100000;-73
2022/04/03 04:53:30;;;;;;;9.65;5.45;;;;;;;;;;4972003;28;99988;-73
2022/04/03 04:55:57;;;;;;;9.30;5.15;;;;;;;;;;4971270;28;100296;-75
2022/04/03 04:58:24;;;;;;;12.00;5.65;;;;;;;;;;4954462;28;100701;-72
2022/04/03 05:00:53;;;;;;;11.13;5.75;;;;;;;;;;4954072;28;102374;-73
2022/04/03 05:03:20;;;;;;;11.93;6.13;;;;;;;;;;4970992;28;100142;-73
2022/04/03 05:05:47;;;;;;;13.18;6.68;;;;;;;;;;4970916;28;100333;-72
2022/04/03 05:08:14;;;;;;;9.35;5.32;;;;;;;;;;4971570;28;100583;-72
2022/04/03 05:10:41;;;;;;;23.23;7.90;;;;;;;;;;4951809;28;99801;-73
2022/04/03 05:13:09;;;;;;;13.85;5.93;;;;;;;;;;4954604;28;100037;-73
2022/04/03 05:15:36;;;;;;;14.60;6.60;;;;;;;;;;4954117;28;100736;-73
2022/04/03 05:18:03;;;;;;;14.70;6.78;;;;;;;;;;4952599;28;100551;-72
2022/04/03 05:20:30;;;;;;;15.13;7.15;;;;;;;;;;4953666;28;100163;-72
2022/04/03 05:22:57;;;;;;;13.25;5.72;;;;;;;;;;4937558;28;100053;-72
2022/04/03 05:25:24;;;;;;;12.70;6.53;;;;;;;;;;4970956;28;100313;-72
2022/04/03 05:27:51;;;;;;;13.85;6.68;;;;;;;;;;4953767;28;100742;-72
2022/04/03 05:30:17;;;;;;;15.32;5.93;;;;;;;;;;4954119;28;100114;-72
2022/04/03 05:32:44;;;;;;;11.95;5.68;;;;;;;;;;4970717;28;100095;-73
2022/04/03 05:35:13;;;;;;;12.80;5.45;;;;;;;;;;4971149;28;100335;-73
2022/04/03 05:37:42;;;;;;;12.07;6.47;;;;;;;;;;4954735;28;100522;-73
2022/04/03 05:40:11;;;;;;;12.25;6.35;;;;;;;;;;4953690;28;100196;-73
2022/04/03 05:42:39;;;;;;;14.75;6.15;;;;;;;;;;4970142;28;100158;-73
2022/04/03 05:45:06;;;;;;;10.68;6.00;;;;;;;;;;4953173;28;100351;-73
2022/04/03 05:47:33;;;;;;;12.32;5.75;;;;;;;;;;4953393;28;100615;-73
2022/04/03 05:50:00;;;;;;;12.88;5.78;;;;;;;;;;4953896;28;100290;-73
2022/04/03 05:52:27;;;;;;;10.43;5.95;;;;;;;;;;4971042;28;99935;-73
2022/04/03 05:54:54;;;;;;;12.50;7.50;;;;;;;;;;4953229;28;101778;-73
2022/04/03 05:57:21;;;;;;;10.80;4.65;;;;;;;;;;4970708;28;100657;-73
2022/04/03 05:59:48;;;;;;;13.93;6.30;;;;;;;;;;4971030;28;100000;-73
2022/04/03 06:02:14;;;;;;;12.23;5.60;;;;;;;;;;4937339;28;99977;-74
2022/04/03 06:04:41;;;;;;;15.65;6.38;;;;;;;;;;4970461;28;100359;-74
2022/04/03 06:07:08;;;;;;;13.10;6.43;;;;;;;;;;4970643;28;101825;-73
2022/04/03 06:09:35;;;;;;;14.23;6.00;;;;;;;;;;4950192;28;100034;-73
2022/04/03 06:12:02;;;;;;;11.85;5.65;;;;;;;;;;4970207;28;100079;-73
2022/04/03 06:14:29;;;;;;;13.52;6.18;;;;;;;;;;4954717;28;100312;-73
2022/04/03 06:16:56;;;;;;;13.77;6.63;;;;;;;;;;4969356;28;100862;-73
2022/04/03 06:19:22;;;;;;;12.38;6.97;;;;;;;;;;4952677;28;100331;-73
2022/04/03 06:21:49;;;;;;;12.77;5.60;;;;;;;;;;4936731;28;100120;-73
2022/04/03 06:24:16;;;;;;;12.90;5.93;;;;;;;;;;4969258;28;100446;-73
2022/04/03 06:26:43;;;;;;;13.25;6.68;;;;;;;;;;4970572;28;101504;-71
2022/04/03 06:29:10;;;;;;;18.70;7.50;;;;;;;;;;4970348;28;100068;-73
2022/04/03 06:31:38;;;;;;;16.42;7.00;;;;;;;;;;4968697;28;100325;-73
2022/04/03 06:34:06;;;;;;;17.75;8.77;;;;;;;;;;4950077;28;100391;-74
2022/04/03 06:36:33;;;;;;;11.40;7.22;;;;;;;;;;4966996;28;100679;-73
2022/04/03 06:39:00;;;;;;;15.80;8.25;;;;;;;;;;4969147;28;100192;-73
2022/04/03 06:41:27;;;;;;;18.38;8.98;;;;;;;;;;4968818;28;99968;-74
2022/04/03 06:43:54;;;;;;;17.52;9.05;;;;;;;;;;4968760;28;100180;-74
2022/04/03 06:46:21;;;;;;;14.38;7.90;;;;;;;;;;4951293;28;100726;-73
2022/04/03 06:48:48;;;;;;;18.60;8.15;;;;;;;;;;4967738;28;100258;-73
2022/04/03 06:51:15;;;;;;;20.63;8.73;;;;;;;;;;4952432;28;100189;-73
2022/04/03 06:53:42;;;;;;;20.25;9.48;;;;;;;;;;4970044;28;100372;-73
2022/04/03 06:56:09;;;;;;;15.93;8.30;;;;;;;;;;4968526;28;100732;-74
2022/04/03 06:58:37;;;;;;;18.02;10.00;;;;;;;;;;4969518;28;100225;-73
2022/04/03 07:01:04;;;;;;;14.25;9.02;;;;;;;;;;4952791;28;100114;-73
2022/04/03 07:03:32;;;;;;;20.48;9.73;;;;;;;;;;4969695;28;100273;-73
2022/04/03 07:05:59;;;;;;;12.40;7.03;;;;;;;;;;4935382;28;100800;-73
2022/04/03 07:08:28;;;;;;;11.90;6.88;;;;;;;;;;4968827;28;100095;-73
2022/04/03 07:10:55;;;;;;;15.95;8.13;;;;;;;;;;4952659;28;100111;-73
2022/04/03 07:13:22;;;;;;;16.13;7.90;;;;;;;;;;4969619;28;100264;-73
2022/04/03 07:15:49;;;;;;;15.80;8.23;;;;;;;;;;4952716;28;100690;-74
2022/04/03 07:18:16;;;;;;;13.65;7.85;;;;;;;;;;4951921;28;100299;-74
2022/04/03 07:20:48;;;;;;;13.50;8.32;;;;;;;;;;4935335;28;100075;-74
2022/04/03 07:23:14;;;;;;;13.00;7.85;;;;;;;;;;4951334;28;100305;-74
2022/04/03 07:25:41;;;;;;;17.17;9.43;;;;;;;;;;4951906;28;100949;-74
2022/04/03 07:28:08;;;;;;;16.40;8.75;;;;;;;;;;4969682;28;100138;-74
2022/04/03 07:30:35;;;;;;;15.43;7.38;;;;;;;;;;4969871;28;99934;-73
2022/04/03 07:33:02;;;;;;;13.15;7.47;;;;;;;;;;4935411;28;103909;-73
2022/04/03 07:35:29;;;;;;;14.32;6.53;;;;;;;;;;4969301;28;100679;-73
2022/04/03 07:37:56;;;;;;;21.25;8.50;;;;;;;;;;4952387;28;100217;-73
2022/04/03 07:40:22;;;;;;;11.27;6.82;;;;;;;;;;4970033;28;100006;-74
2022/04/03 07:43:09;;;;;;;14.60;8.38;;;;;;;;;;4972810;28;100304;-74
2022/04/03 07:45:36;;;;;;;19.30;9.23;;;;;;;;;;4955237;28;100606;-74
2022/04/03 07:48:06;;;;;;;16.27;9.35;;;;;;;;;;4952403;28;99965;-74
2022/04/03 07:50:33;;;;;;;17.27;8.95;;;;;;;;;;4972805;28;99953;-74
2022/04/03 07:53:02;;;;;;;14.93;6.97;;;;;;;;;;4971116;28;99923;-75
2022/04/03 07:55:29;;;;;;;13.88;6.93;;;;;;;;;;4955203;28;100527;-74
2022/04/03 07:57:56;;;;;;;14.88;7.70;;;;;;;;;;4972882;28;100137;-73
2022/04/03 08:00:23;;;;;;;13.65;7.18;;;;;;;;;;4938896;28;100041;-73
2022/04/03 08:02:50;;;;;;;16.08;7.82;;;;;;;;;;4938834;28;100794;-74
2022/04/03 08:05:17;;;;;;;18.38;7.78;;;;;;;;;;4972177;28;100621;-73
2022/04/03 08:07:48;;;;;;;18.02;9.07;;;;;;;;;;4972419;28;100367;-73
2022/04/03 08:10:18;;;;;;;13.80;8.25;;;;;;;;;;4955316;28;100182;-73
2022/04/03 08:12:45;;;;;;;15.20;8.18;;;;;;;;;;4954905;28;100827;-73
2022/04/03 08:15:13;;;;;;;15.27;8.70;;;;;;;;;;4921043;28;101547;-74
2022/04/03 08:17:41;;;;;;;15.18;9.38;;;;;;;;;;4953544;28;100255;-73
2022/04/03 08:20:17;;;;;;;16.85;8.20;;;;;;;;;;4971148;28;100095;-74
2022/04/03 08:22:45;;;;;;;19.75;10.07;;;;;;;;;;4937455;28;100273;-74
2022/04/03 08:25:13;;;;;;;18.45;8.52;;;;;;;;;;4973186;28;100703;-74
2022/04/03 08:27:54;;;;;;;16.55;8.77;;;;;;;;;;4968795;28;100254;-75
2022/04/03 08:30:26;;;;;;;15.00;8.18;;;;;;;;;;4969975;28;100084;-72
2022/04/03 08:32:54;;;;;;;14.40;8.10;;;;;;;;;;4953176;28;100281;-73
2022/04/03 08:35:22;;;;;;;17.98;10.70;;;;;;;;;;4969455;28;101765;-74
2022/04/03 08:37:50;;;;;;;18.70;10.10;;;;;;;;;;4967978;28;100228;-73
2022/04/03 08:40:18;;;;;;;16.83;9.85;;;;;;;;;;4953845;28;100165;-74
2022/04/03 08:42:47;;;;;;;19.13;10.20;;;;;;;;;;4954643;28;100264;-73
2022/04/03 08:45:14;;;;;;;19.45;11.50;;;;;;;;;;4971177;28;100846;-74
2022/04/03 08:47:45;;;;;;;17.38;11.60;;;;;;;;;;4972129;28;100115;-73
2022/04/03 08:50:15;;;;;;;18.30;10.45;;;;;;;;;;4943428;28;100140;-74
2022/04/03 08:52:46;;;;;;;16.40;9.45;;;;;;;;;;4953521;28;100279;-74
2022/04/03 08:55:14;;;;;;;21.50;12.65;;;;;;;;;;4972045;28;100601;-74
2022/04/03 08:57:41;;;;;;;22.73;14.20;;;;;;;;;;4954289;28;100227;-74
2022/04/03 09:00:08;;;;;;;30.52;16.85;;;;;;;;;;4953495;28;100182;-73
2022/04/03 09:02:35;;;;;;;22.77;14.20;;;;;;;;;;4970622;28;100251;-75
2022/04/03 09:05:03;;;;;;;21.30;12.85;;;;;;;;;;4951143;28;100631;-73
2022/04/03 09:07:30;;;;;;;17.88;11.50;;;;;;;;;;4944838;28;101408;-74
2022/04/03 09:09:59;;;;;;;24.42;14.45;;;;;;;;;;4950876;28;100153;-74
2022/04/03 09:12:26;;;;;;;22.55;13.48;;;;;;;;;;4951223;28;100376;-74
2022/04/03 09:14:54;;;;;;;17.55;11.93;;;;;;;;;;4950264;28;100695;-74
2022/04/03 09:18:00;;;;;;;19.75;11.77;;;;;;;;;;4951677;28;100234;-74
2022/04/03 09:20:28;;;;;;;21.20;11.27;;;;;;;;;;4934358;28;100114;-74
2022/04/03 09:22:58;;;;;;;17.02;9.60;;;;;;;;;;4950974;28;100894;-74
2022/04/03 09:25:35;;;;;;;20.67;12.52;;;;;;;;;;4949433;28;100658;-73
2022/04/03 09:28:04;;;;;;;18.02;11.52;;;;;;;;;;4933597;28;99971;-72
2022/04/03 09:30:38;;;;;;;21.70;11.02;;;;;;;;;;4941170;28;100206;-73
2022/04/03 09:33:06;;;;;;;16.73;11.23;;;;;;;;;;4950004;28;100615;-72
2022/04/03 09:35:58;;;;;;;18.17;11.52;;;;;;;;;;4950458;28;101108;-73
2022/04/03 09:38:29;;;;;;;19.88;12.05;;;;;;;;;;4934846;28;99987;-74
2022/04/03 09:40:59;;;;;;;19.08;12.13;;;;;;;;;;4950605;28;100208;-74
2022/04/03 09:43:38;;;;;;;21.23;12.85;;;;;;;;;;4935221;28;100509;-74
2022/04/03 09:46:06;;;;;;;22.05;14.05;;;;;;;;;;4950994;28;100587;-74
2022/04/03 09:48:41;;;;;;;22.73;15.85;;;;;;;;;;4949859;28;100172;-74
2022/04/03 09:51:09;;;;;;;21.60;15.15;;;;;;;;;;4949928;28;100128;-74
2022/04/03 09:54:01;;;;;;;19.67;14.05;;;;;;;;;;4948822;28;100351;-73
2022/04/03 09:56:31;;;;;;;22.77;13.75;;;;;;;;;;4950221;28;101137;-73
2022/04/03 09:59:06;;;;;;;21.60;14.95;;;;;;;;;;4949668;28;100141;-73
2022/04/03 10:01:40;;;;;;;27.05;16.52;;;;;;;;;;4951022;28;100042;-73
2022/04/03 10:04:13;;;;;;;28.83;18.58;;;;;;;;;;4964814;28;100310;-73
2022/04/03 10:06:41;;;;;;;30.98;18.88;;;;;;;;;;4945196;28;100650;-73
2022/04/03 10:09:11;;;;;;;29.23;18.58;;;;;;;;;;4931032;28;100079;-73
2022/04/03 10:11:39;;;;;;;26.13;17.48;;;;;;;;;;4931227;28;100032;-73
2022/04/03 10:14:06;;;;;;;29.92;19.08;;;;;;;;;;4945971;28;100640;-74
2022/04/03 10:16:33;;;;;;;25.30;16.88;;;;;;;;;;4931022;28;101153;-74
2022/04/03 10:19:00;;;;;;;26.85;16.02;;;;;;;;;;4944974;28;100615;-72
2022/04/03 10:21:30;;;;;;;27.55;16.33;;;;;;;;;;4936494;28;100256;-74
2022/04/03 10:24:07;;;;;;;27.02;15.93;;;;;;;;;;4933320;28;100258;-73
2022/04/03 10:26:37;;;;;;;27.33;16.38;;;;;;;;;;4930741;28;101154;-74
2022/04/03 10:29:06;;;;;;;28.80;16.20;;;;;;;;;;4932547;28;100045;-73
2022/04/03 10:31:34;;;;;;;23.50;16.02;;;;;;;;;;4946574;28;101580;-74
2022/04/03 10:34:02;;;;;;;22.33;15.45;;;;;;;;;;4929371;28;100378;-73
2022/04/03 10:36:30;;;;;;;24.80;15.93;;;;;;;;;;4929728;28;100655;-73
2022/04/03 10:39:04;;;;;;;25.55;15.68;;;;;;;;;;4912918;28;100550;-73
2022/04/03 10:41:35;;;;;;;24.85;14.57;;;;;;;;;;4944233;28;100107;-73
2022/04/03 10:44:18;;;;;;;24.48;15.55;;;;;;;;;;4944637;28;102182;-72
2022/04/03 10:47:16;;;;;;;21.20;14.10;;;;;;;;;;4928813;28;100599;-74
2022/04/03 10:49:48;;;;;;;20.73;14.70;;;;;;;;;;4927489;28;100143;-75
2022/04/03 10:52:46;;;;;;;21.42;14.32;;;;;;;;;;4928151;28;100227;-73
2022/04/03 10:55:21;;;;;;;21.13;14.80;;;;;;;;;;4915465;28;105447;-73
2022/04/03 10:57:51;;;;;;;20.38;13.50;;;;;;;;;;4942571;28;100594;-73
2022/04/03 11:00:18;;;;;;;19.60;13.23;;;;;;;;;;4926611;28;100280;-73
2022/04/03 11:02:45;;;;;;;20.02;12.82;;;;;;;;;;4943459;28;100260;-74
2022/04/03 11:05:21;;;;;;;20.80;12.82;;;;;;;;;;4933929;28;100916;-75
2022/04/03 11:08:14;;;;;;;25.45;12.85;;;;;;;;;;4945829;28;101272;-74
2022/04/03 11:10:57;;;;;;;21.02;12.60;;;;;;;;;;4944644;28;100273;-74
2022/04/03 11:13:30;;;;;;;21.20;12.68;;;;;;;;;;4946438;28;100422;-74
2022/04/03 11:16:06;;;;;;;18.17;12.43;;;;;;;;;;4945788;28;100521;-74
2022/04/03 11:18:38;;;;;;;20.40;13.63;;;;;;;;;;4961544;28;100688;-74
2022/04/03 11:21:16;;;;;;;19.65;12.25;;;;;;;;;;4963104;28;100076;-74
2022/04/03 11:24:03;;;;;;;18.45;11.18;;;;;;;;;;4947760;28;100541;-75
2022/04/03 11:26:31;;;;;;;17.05;10.48;;;;;;;;;;4946237;28;100887;-74
2022/04/03 11:29:06;;;;;;;18.20;11.38;;;;;;;;;;4947062;28;103774;-74
2022/04/03 11:31:34;;;;;;;16.92;10.48;;;;;;;;;;4947079;28;100630;-74
2022/04/03 11:34:01;;;;;;;17.92;12.00;;;;;;;;;;4947064;28;100271;-73
2022/04/03 11:36:31;;;;;;;17.75;11.90;;;;;;;;;;4946178;28;101002;-73
2022/04/03 11:39:00;;;;;;;17.90;11.20;;;;;;;;;;4930491;28;100563;-73
2022/04/03 11:41:34;;;;;;;18.08;10.00;;;;;;;;;;4929907;28;100188;-74
2022/04/03 11:44:08;;;;;;;16.38;10.73;;;;;;;;;;4941645;28;100173;-73
2022/04/03 11:46:43;;;;;;;14.43;10.13;;;;;;;;;;4948021;28;100704;-73
2022/04/03 11:49:11;;;;;;;18.00;10.20;;;;;;;;;;4929690;28;103819;-74
2022/04/03 11:51:38;;;;;;;14.52;9.25;;;;;;;;;;4946250;28;100589;-73
2022/04/03 11:54:05;;;;;;;18.23;11.30;;;;;;;;;;4930389;28;100695;-73
2022/04/03 11:56:35;;;;;;;18.27;9.93;;;;;;;;;;4947393;28;100280;-73
2022/04/03 11:59:03;;;;;;;17.30;11.10;;;;;;;;;;4947556;28;101086;-72
2022/04/03 12:01:31;;;;;;;16.40;11.02;;;;;;;;;;4946180;28;100253;-73
2022/04/03 12:03:59;;;;;;;17.17;11.13;;;;;;;;;;4947004;28;100030;-73
2022/04/03 12:06:26;;;;;;;16.83;10.82;;;;;;;;;;4963167;28;101528;-73
2022/04/03 12:08:54;;;;;;;13.48;9.63;;;;;;;;;;4947973;28;103230;-74
2022/04/03 12:11:26;;;;;;;17.35;10.02;;;;;;;;;;4965429;28;100257;-73
2022/04/03 12:13:57;;;;;;;14.90;9.80;;;;;;;;;;4965142;28;100266;-74
2022/04/03 12:16:33;;;;;;;16.33;10.13;;;;;;;;;;4963432;28;101385;-74
2022/04/03 12:19:04;;;;;;;17.58;10.13;;;;;;;;;;4931645;28;102856;-74
2022/04/03 12:22:04;;;;;;;15.00;10.25;;;;;;;;;;4947762;28;100253;-74
2022/04/03 12:24:32;;;;;;;15.27;9.68;;;;;;;;;;4935414;28;100201;-74
2022/04/03 12:27:15;;;;;;;17.65;10.30;;;;;;;;;;4933033;28;100477;-73
2022/04/03 12:29:47;;;;;;;14.70;9.88;;;;;;;;;;4956111;28;100054;-73
2022/04/03 12:32:19;;;;;;;15.77;10.20;;;;;;;;;;4954194;28;99871;-74
2022/04/03 12:34:47;;;;;;;13.45;9.45;;;;;;;;;;4937903;28;100077;-74
2022/04/03 12:37:14;;;;;;;17.98;9.80;;;;;;;;;;4954955;28;100306;-74
2022/04/03 12:39:45;;;;;;;14.18;10.13;;;;;;;;;;4956410;28;102332;-73
2022/04/03 12:42:18;;;;;;;17.00;10.68;;;;;;;;;;4971098;28;100189;-74
2022/04/03 12:44:52;;;;;;;13.57;9.25;;;;;;;;;;4972113;28;100121;-73
2022/04/03 12:47:32;;;;;;;16.42;10.95;;;;;;;;;;4952172;28;100627;-73
2022/04/03 12:50:11;;;;;;;16.35;10.63;;;;;;;;;;4955296;28;100735;-74
2022/04/03 12:52:56;;;;;;;17.05;10.65;;;;;;;;;;4967275;28;99983;-73
2022/04/03 12:55:23;;;;;;;12.48;8.88;;;;;;;;;;4969892;28;100060;-74
2022/04/03 13:01:06;;;;;;;12.70;6.35;;;;;;;;;;4973423;28;101603;-74
2022/04/03 13:03:38;;;;;;;14.93;6.57;;;;;;;;;;4956543;28;100143;-73
2022/04/03 13:06:06;;;;;;;13.90;7.18;;;;;;;;;;4949482;28;103027;-75
2022/04/03 13:08:50;;;;;;;13.35;6.95;;;;;;;;;;4955114;28;100315;-73
2022/04/03 13:11:36;;;;;;;11.15;7.00;;;;;;;;;;4953517;28;101946;-74
2022/04/03 13:14:18;;;;;;;12.10;6.75;;;;;;;;;;4938698;28;100066;-74
2022/04/03 13:16:46;;;;;;;9.85;6.15;;;;;;;;;;4970982;28;100064;-74
2022/04/03 13:19:13;;;;;;;12.32;7.05;;;;;;;;;;4950546;28;100300;-74
2022/04/03 13:21:43;;;;;;;11.57;7.22;;;;;;;;;;4970725;28;100559;-74
2022/04/03 13:24:10;;;;;;;12.40;6.05;;;;;;;;;;4954132;28;100207;-74
2022/04/03 13:26:54;;;;;;;13.48;6.80;;;;;;;;;;4972849;28;99998;-74
2022/04/03 13:29:21;;;;;;;9.15;6.15;;;;;;;;;;4952947;28;100268;-73
2022/04/03 13:31:49;;;;;;;11.15;6.65;;;;;;;;;;4953351;28;100736;-74
2022/04/03 13:34:16;;;;;;;11.82;6.68;;;;;;;;;;4973001;28;101229;-74
2022/04/03 13:36:44;;;;;;;11.15;6.82;;;;;;;;;;4972850;28;100847;-74
2022/04/03 13:39:11;;;;;;;9.82;6.40;;;;;;;;;;4953750;28;100280;-73
2022/04/03 13:41:43;;;;;;;8.98;5.80;;;;;;;;;;4972240;28;100888;-73
2022/04/03 13:44:13;;;;;;;10.23;6.38;;;;;;;;;;4953505;28;100062;-73
2022/04/03 13:46:40;;;;;;;13.60;8.20;;;;;;;;;;4970616;28;100117;-73
2022/04/03 13:49:07;;;;;;;12.55;6.78;;;;;;;;;;4971815;28;100558;-73
2022/04/03 13:51:35;;;;;;;7.25;4.47;;;;;;;;;;4970816;28;102119;-73
2022/04/03 13:54:02;;;;;;;7.65;4.60;;;;;;;;;;4954783;28;103055;-73
2022/04/03 13:56:29;;;;;;;7.50;3.97;;;;;;;;;;4953392;28;99994;-74
2022/04/03 13:58:56;;;;;;;5.97;4.10;;;;;;;;;;4971136;28;100588;-73
2022/04/03 14:01:23;;;;;;;7.95;4.32;;;;;;;;;;4970981;28;100615;-72
2022/04/03 14:03:51;;;;;;;7.88;4.55;;;;;;;;;;4953448;28;100215;-73
2022/04/03 14:06:22;;;;;;;9.88;4.80;;;;;;;;;;4952671;28;100292;-73
2022/04/03 14:08:48;;;;;;;9.07;4.72;;;;;;;;;;4952643;28;100875;-73
2022/04/03 14:11:17;;;;;;;8.73;4.72;;;;;;;;;;4952806;28;101801;-73
2022/04/03 14:13:44;;;;;;;6.97;3.47;;;;;;;;;;4970694;28;100034;-73
2022/04/03 14:16:11;;;;;;;6.60;3.60;;;;;;;;;;4971060;28;100136;-72
2022/04/03 14:18:38;;;;;;;5.95;3.15;;;;;;;;;;4969744;28;100836;-75
2022/04/03 14:21:06;;;;;;;6.20;4.00;;;;;;;;;;4968997;28;101308;-73
2022/04/03 14:23:33;;;;;;;9.75;5.28;;;;;;;;;;4967731;28;100221;-73
2022/04/03 14:26:04;;;;;;;11.55;6.35;;;;;;;;;;4967804;28;100433;-74
2022/04/03 14:28:31;;;;;;;8.85;4.85;;;;;;;;;;4967995;28;101938;-74